sensor_id;sensor_type;location;lat;lon;timestamp;pressure;altitude;pressure_sealevel;temperature;humidity
66385;BME280;53426;55.872;37.462;2023-02-21T00:01:56;96962.66;;;-9.69;68.01
66385;BME280;53426;55.872;37.462;2023-02-21T00:04:41;96964.66;;;-9.76;68.45
66385;BME280;53426;55.872;37.462;2023-02-21T00:07:26;96959.53;;;-9.76;68.07
66385;BME280;53426;55.872;37.462;2023-02-21T00:10:13;96957.47;;;-9.67;68.13
66385;BME280;53426;55.872;37.462;2023-02-21T00:12:58;96947.00;;;-9.63;68.02
66385;BME280;53426;55.872;37.462;2023-02-21T00:15:42;96899.88;;;-9.96;68.22
66385;BME280;53426;55.872;37.462;2023-02-21T00:18:35;96928.97;;;-9.79;67.77
66385;BME280;53426;55.872;37.462;2023-02-21T00:21:19;96940.16;;;-9.62;67.90
66385;BME280;53426;55.872;37.462;2023-02-21T00:24:05;96927.56;;;-9.67;67.74
66385;BME280;53426;55.872;37.462;2023-02-21T00:26:50;96942.31;;;-9.72;68.14
66385;BME280;53426;55.872;37.462;2023-02-21T00:29:38;96938.16;;;-9.75;67.73
66385;BME280;53426;55.872;37.462;2023-02-21T00:32:22;96949.44;;;-9.79;67.94
66385;BME280;53426;55.872;37.462;2023-02-21T00:35:06;96922.59;;;-9.89;67.61
66385;BME280;53426;55.872;37.462;2023-02-21T00:37:51;96931.63;;;-9.82;67.66
66385;BME280;53426;55.872;37.462;2023-02-21T00:43:33;96930.34;;;-9.90;67.54
66385;BME280;53426;55.872;37.462;2023-02-21T00:46:28;96934.50;;;-9.88;67.49
66385;BME280;53426;55.872;37.462;2023-02-21T00:49:12;96922.66;;;-9.90;67.60
66385;BME280;53426;55.872;37.462;2023-02-21T00:51:57;96919.31;;;-9.92;67.37
66385;BME280;53426;55.872;37.462;2023-02-21T00:54:41;96888.41;;;-10.06;67.83
66385;BME280;53426;55.872;37.462;2023-02-21T00:57:25;96908.06;;;-9.88;67.70
66385;BME280;53426;55.872;37.462;2023-02-21T01:00:16;96903.91;;;-9.91;67.71
66385;BME280;53426;55.872;37.462;2023-02-21T01:03:05;96903.91;;;-9.91;67.57
66385;BME280;53426;55.872;37.462;2023-02-21T01:05:49;96898.72;;;-9.89;67.42
66385;BME280;53426;55.872;37.462;2023-02-21T01:08:33;96902.25;;;-9.92;67.40
66385;BME280;53426;55.872;37.462;2023-02-21T01:11:20;96860.78;;;-10.17;67.22
66385;BME280;53426;55.872;37.462;2023-02-21T01:14:05;96892.38;;;-9.99;67.46
66385;BME280;53426;55.872;37.462;2023-02-21T01:16:49;96891.31;;;-10.33;67.20
66385;BME280;53426;55.872;37.462;2023-02-21T01:19:36;96891.44;;;-10.36;67.53
66385;BME280;53426;55.872;37.462;2023-02-21T01:22:20;96883.72;;;-10.34;67.55
66385;BME280;53426;55.872;37.462;2023-02-21T01:25:05;96869.47;;;-10.40;67.21
66385;BME280;53426;55.872;37.462;2023-02-21T01:27:52;96875.66;;;-10.45;67.89
66385;BME280;53426;55.872;37.462;2023-02-21T01:30:37;96893.63;;;-10.27;67.33
66385;BME280;53426;55.872;37.462;2023-02-21T01:33:21;96879.69;;;-10.40;67.08
66385;BME280;53426;55.872;37.462;2023-02-21T01:36:07;96871.34;;;-10.43;66.95
66385;BME280;53426;55.872;37.462;2023-02-21T01:38:53;96891.59;;;-10.39;67.44
66385;BME280;53426;55.872;37.462;2023-02-21T01:41:37;96865.97;;;-10.57;67.46
66385;BME280;53426;55.872;37.462;2023-02-21T01:44:45;96882.22;;;-10.58;67.03
66385;BME280;53426;55.872;37.462;2023-02-21T01:47:32;96883.03;;;-10.58;67.35
66385;BME280;53426;55.872;37.462;2023-02-21T01:50:23;96883.22;;;-10.63;67.65
66385;BME280;53426;55.872;37.462;2023-02-21T01:53:15;96877.00;;;-10.76;67.01
66385;BME280;53426;55.872;37.462;2023-02-21T01:56:05;96875.53;;;-10.81;66.83
66385;BME280;53426;55.872;37.462;2023-02-21T01:58:52;96849.56;;;-11.33;67.08
66385;BME280;53426;55.872;37.462;2023-02-21T02:01:45;96889.88;;;-11.19;67.59
66385;BME280;53426;55.872;37.462;2023-02-21T02:04:33;96884.38;;;-11.30;67.38
66385;BME280;53426;55.872;37.462;2023-02-21T02:07:19;96876.31;;;-11.41;67.01
66385;BME280;53426;55.872;37.462;2023-02-21T02:10:05;96851.75;;;-11.88;67.41
66385;BME280;53426;55.872;37.462;2023-02-21T02:16:01;96888.09;;;-11.81;68.01
66385;BME280;53426;55.872;37.462;2023-02-21T02:36:09;96883.97;;;-11.41;66.69
66385;BME280;53426;55.872;37.462;2023-02-21T02:40:54;96876.75;;;-11.74;67.27
66385;BME280;53426;55.872;37.462;2023-02-21T02:43:53;96873.13;;;-11.68;67.61
66385;BME280;53426;55.872;37.462;2023-02-21T02:46:28;96889.56;;;-11.97;67.84
66385;BME280;53426;55.872;37.462;2023-02-21T02:49:06;96892.00;;;-12.17;67.97
66385;BME280;53426;55.872;37.462;2023-02-21T02:51:37;96877.31;;;-12.11;68.30
66385;BME280;53426;55.872;37.462;2023-02-21T02:54:06;96860.69;;;-12.21;68.48
66385;BME280;53426;55.872;37.462;2023-02-21T02:56:34;96885.72;;;-11.85;67.96
66385;BME280;53426;55.872;37.462;2023-02-21T02:59:24;96885.03;;;-11.69;68.18
66385;BME280;53426;55.872;37.462;2023-02-21T03:08:02;96869.97;;;-11.53;66.63
66385;BME280;53426;55.872;37.462;2023-02-21T03:13:32;96878.31;;;-11.50;66.15
66385;BME280;53426;55.872;37.462;2023-02-21T03:16:19;96836.28;;;-11.83;66.14
66385;BME280;53426;55.872;37.462;2023-02-21T03:18:53;96878.28;;;-11.70;66.04
66385;BME280;53426;55.872;37.462;2023-02-21T03:21:29;96865.69;;;-11.73;66.29
66385;BME280;53426;55.872;37.462;2023-02-21T03:23:59;96888.53;;;-11.71;66.40
66385;BME280;53426;55.872;37.462;2023-02-21T03:26:30;96878.22;;;-11.68;66.20
66385;BME280;53426;55.872;37.462;2023-02-21T03:29:08;96876.50;;;-11.68;65.89
66385;BME280;53426;55.872;37.462;2023-02-21T03:31:48;96854.91;;;-11.81;65.72
66385;BME280;53426;55.872;37.462;2023-02-21T03:34:16;96867.38;;;-11.95;65.19
66385;BME280;53426;55.872;37.462;2023-02-21T03:36:42;96870.72;;;-12.16;65.44
66385;BME280;53426;55.872;37.462;2023-02-21T03:39:12;96859.75;;;-12.42;65.53
66385;BME280;53426;55.872;37.462;2023-02-21T03:41:38;96851.88;;;-12.59;66.63
66385;BME280;53426;55.872;37.462;2023-02-21T03:44:04;96873.22;;;-12.38;65.96
66385;BME280;53426;55.872;37.462;2023-02-21T03:46:31;96879.00;;;-12.33;66.38
66385;BME280;53426;55.872;37.462;2023-02-21T03:48:58;96877.88;;;-12.49;66.79
66385;BME280;53426;55.872;37.462;2023-02-21T03:51:27;96870.50;;;-12.57;66.61
66385;BME280;53426;55.872;37.462;2023-02-21T03:53:54;96862.78;;;-12.79;66.15
66385;BME280;53426;55.872;37.462;2023-02-21T03:56:27;96848.88;;;-12.93;66.54
66385;BME280;53426;55.872;37.462;2023-02-21T03:59:02;96885.69;;;-12.79;66.08
66385;BME280;53426;55.872;37.462;2023-02-21T04:01:28;96839.47;;;-13.16;66.60
66385;BME280;53426;55.872;37.462;2023-02-21T04:03:54;96880.38;;;-12.97;65.92
66385;BME280;53426;55.872;37.462;2023-02-21T04:06:21;96881.38;;;-13.01;66.83
66385;BME280;53426;55.872;37.462;2023-02-21T04:08:48;96878.69;;;-12.97;66.85
66385;BME280;53426;55.872;37.462;2023-02-21T04:11:17;96865.81;;;-13.17;67.24
66385;BME280;53426;55.872;37.462;2023-02-21T04:13:44;96850.91;;;-13.28;66.16
66385;BME280;53426;55.872;37.462;2023-02-21T04:16:10;96856.91;;;-13.30;66.89
66385;BME280;53426;55.872;37.462;2023-02-21T04:18:37;96870.66;;;-13.36;66.23
66385;BME280;53426;55.872;37.462;2023-02-21T04:21:06;96877.34;;;-13.32;66.38
66385;BME280;53426;55.872;37.462;2023-02-21T04:23:32;96880.84;;;-13.36;67.04
66385;BME280;53426;55.872;37.462;2023-02-21T04:25:58;96873.31;;;-13.39;66.59
66385;BME280;53426;55.872;37.462;2023-02-21T04:28:31;96884.53;;;-13.44;66.60
66385;BME280;53426;55.872;37.462;2023-02-21T04:30:57;96864.81;;;-13.64;67.06
66385;BME280;53426;55.872;37.462;2023-02-21T04:33:24;96889.94;;;-13.53;66.25
66385;BME280;53426;55.872;37.462;2023-02-21T04:35:53;96905.63;;;-13.41;66.43
66385;BME280;53426;55.872;37.462;2023-02-21T04:38:28;96885.13;;;-13.36;66.29
66385;BME280;53426;55.872;37.462;2023-02-21T04:40:54;96883.47;;;-13.37;67.05
66385;BME280;53426;55.872;37.462;2023-02-21T04:43:22;96877.38;;;-13.33;66.55
66385;BME280;53426;55.872;37.462;2023-02-21T04:45:49;96890.06;;;-13.32;66.07
66385;BME280;53426;55.872;37.462;2023-02-21T04:48:15;96872.03;;;-13.52;66.58
66385;BME280;53426;55.872;37.462;2023-02-21T04:50:41;96898.06;;;-13.42;66.41
66385;BME280;53426;55.872;37.462;2023-02-21T04:53:06;96860.50;;;-13.62;66.43
66385;BME280;53426;55.872;37.462;2023-02-21T04:55:32;96898.53;;;-13.31;65.88
66385;BME280;53426;55.872;37.462;2023-02-21T04:57:58;96902.88;;;-13.35;66.08
66385;BME280;53426;55.872;37.462;2023-02-21T05:00:24;96863.03;;;-13.62;65.74
66385;BME280;53426;55.872;37.462;2023-02-21T05:02:49;96902.19;;;-13.40;65.44
66385;BME280;53426;55.872;37.462;2023-02-21T05:05:15;96908.13;;;-13.39;65.29
66385;BME280;53426;55.872;37.462;2023-02-21T05:07:42;96907.88;;;-13.32;66.17
66385;BME280;53426;55.872;37.462;2023-02-21T05:10:08;96906.94;;;-13.29;65.11
66385;BME280;53426;55.872;37.462;2023-02-21T05:12:34;96902.25;;;-13.15;65.78
66385;BME280;53426;55.872;37.462;2023-02-21T05:15:02;96910.38;;;-12.81;65.94
66385;BME280;53426;55.872;37.462;2023-02-21T05:17:29;96899.78;;;-12.68;64.86
66385;BME280;53426;55.872;37.462;2023-02-21T05:19:54;96907.91;;;-12.34;64.06
66385;BME280;53426;55.872;37.462;2023-02-21T05:22:20;96910.09;;;-12.00;63.71
66385;BME280;53426;55.872;37.462;2023-02-21T05:24:46;96915.50;;;-12.09;62.87
66385;BME280;53426;55.872;37.462;2023-02-21T05:27:15;96906.75;;;-12.02;62.85
66385;BME280;53426;55.872;37.462;2023-02-21T05:29:45;96896.84;;;-11.88;62.98
66385;BME280;53426;55.872;37.462;2023-02-21T05:32:11;96899.22;;;-11.62;62.77
66385;BME280;53426;55.872;37.462;2023-02-21T05:34:37;96908.91;;;-11.48;61.18
66385;BME280;53426;55.872;37.462;2023-02-21T05:37:03;96908.59;;;-11.40;61.07
66385;BME280;53426;55.872;37.462;2023-02-21T05:39:29;96912.78;;;-11.18;61.54
66385;BME280;53426;55.872;37.462;2023-02-21T05:41:55;96898.13;;;-11.13;60.39
66385;BME280;53426;55.872;37.462;2023-02-21T05:44:22;96932.63;;;-11.03;60.23
66385;BME280;53426;55.872;37.462;2023-02-21T05:46:47;96914.28;;;-10.51;60.28
66385;BME280;53426;55.872;37.462;2023-02-21T05:49:13;96900.41;;;-10.46;58.86
66385;BME280;53426;55.872;37.462;2023-02-21T05:52:07;96911.47;;;-9.88;58.17
66385;BME280;53426;55.872;37.462;2023-02-21T05:54:36;96855.69;;;-9.81;56.21
66385;BME280;53426;55.872;37.462;2023-02-21T05:57:04;96842.66;;;-9.41;55.35
66385;BME280;53426;55.872;37.462;2023-02-21T05:59:30;96919.81;;;-8.59;54.46
66385;BME280;53426;55.872;37.462;2023-02-21T06:01:56;96912.13;;;-8.42;52.64
66385;BME280;53426;55.872;37.462;2023-02-21T06:04:47;96895.31;;;-8.65;53.13
66385;BME280;53426;55.872;37.462;2023-02-21T06:07:21;96890.09;;;-8.46;53.23
66385;BME280;53426;55.872;37.462;2023-02-21T06:15:46;96892.09;;;-7.40;51.05
66385;BME280;53426;55.872;37.462;2023-02-21T06:18:14;96912.97;;;-7.14;49.36
66385;BME280;53426;55.872;37.462;2023-02-21T06:23:31;96916.78;;;-6.76;48.58
66385;BME280;53426;55.872;37.462;2023-02-21T06:25:57;96910.81;;;-6.47;48.88
66385;BME280;53426;55.872;37.462;2023-02-21T06:28:27;96903.47;;;-6.39;47.95
66385;BME280;53426;55.872;37.462;2023-02-21T06:30:54;96902.53;;;-6.52;47.17
66385;BME280;53426;55.872;37.462;2023-02-21T06:33:20;96906.25;;;-6.71;47.10
66385;BME280;53426;55.872;37.462;2023-02-21T06:35:46;96895.56;;;-7.09;48.14
66385;BME280;53426;55.872;37.462;2023-02-21T06:38:11;96907.88;;;-6.41;46.69
66385;BME280;53426;55.872;37.462;2023-02-21T06:40:37;96907.72;;;-6.09;46.81
66385;BME280;53426;55.872;37.462;2023-02-21T06:43:03;96907.53;;;-6.20;45.84
66385;BME280;53426;55.872;37.462;2023-02-21T06:45:29;96908.16;;;-6.45;47.04
66385;BME280;53426;55.872;37.462;2023-02-21T06:47:57;96877.19;;;-6.15;45.61
66385;BME280;53426;55.872;37.462;2023-02-21T06:50:23;96914.75;;;-5.56;44.86
66385;BME280;53426;55.872;37.462;2023-02-21T06:52:49;96893.84;;;-5.52;44.45
66385;BME280;53426;55.872;37.462;2023-02-21T06:55:22;96914.41;;;-5.23;44.95
66385;BME280;53426;55.872;37.462;2023-02-21T06:57:48;96910.75;;;-5.07;43.90
66385;BME280;53426;55.872;37.462;2023-02-21T07:03:11;96919.44;;;-4.16;41.85
66385;BME280;53426;55.872;37.462;2023-02-21T07:05:36;96911.34;;;-3.61;41.33
66385;BME280;53426;55.872;37.462;2023-02-21T07:08:04;96901.34;;;-3.29;40.41
66385;BME280;53426;55.872;37.462;2023-02-21T07:10:30;96906.13;;;-2.88;40.22
66385;BME280;53426;55.872;37.462;2023-02-21T07:12:56;96921.41;;;-2.02;37.84
66385;BME280;53426;55.872;37.462;2023-02-21T07:15:22;96919.16;;;-1.96;38.05
66385;BME280;53426;55.872;37.462;2023-02-21T07:17:47;96908.69;;;-2.40;37.99
66385;BME280;53426;55.872;37.462;2023-02-21T07:20:15;96916.44;;;-2.51;37.77
66385;BME280;53426;55.872;37.462;2023-02-21T07:22:40;96912.34;;;-2.43;37.94
66385;BME280;53426;55.872;37.462;2023-02-21T07:25:21;96905.13;;;-2.04;38.68
66385;BME280;53426;55.872;37.462;2023-02-21T07:27:51;96875.13;;;-1.19;36.76
66385;BME280;53426;55.872;37.462;2023-02-21T07:30:32;96865.13;;;-1.35;36.10
66385;BME280;53426;55.872;37.462;2023-02-21T07:33:25;96917.19;;;-0.82;37.84
66385;BME280;53426;55.872;37.462;2023-02-21T07:42:34;96911.38;;;0.90;35.99
66385;BME280;53426;55.872;37.462;2023-02-21T07:45:31;96906.03;;;0.91;34.15
66385;BME280;53426;55.872;37.462;2023-02-21T07:47:57;96844.63;;;0.09;33.20
66385;BME280;53426;55.872;37.462;2023-02-21T07:50:24;96860.59;;;0.65;32.53
66385;BME280;53426;55.872;37.462;2023-02-21T07:52:58;96873.72;;;1.03;32.88
66385;BME280;53426;55.872;37.462;2023-02-21T07:55:25;96863.81;;;0.38;33.33
66385;BME280;53426;55.872;37.462;2023-02-21T07:57:51;96798.53;;;-0.10;34.11
66385;BME280;53426;55.872;37.462;2023-02-21T08:00:20;96860.00;;;0.52;32.98
66385;BME280;53426;55.872;37.462;2023-02-21T08:02:50;96906.56;;;-0.27;33.40
66385;BME280;53426;55.872;37.462;2023-02-21T08:05:17;96809.19;;;-2.16;35.96
66385;BME280;53426;55.872;37.462;2023-02-21T08:10:58;96870.44;;;-4.55;40.72
66385;BME280;53426;55.872;37.462;2023-02-21T08:13:27;96797.41;;;-4.57;41.09
66385;BME280;53426;55.872;37.462;2023-02-21T08:15:53;96855.22;;;-4.73;40.44
66385;BME280;53426;55.872;37.462;2023-02-21T08:18:22;96913.38;;;-5.21;41.95
66385;BME280;53426;55.872;37.462;2023-02-21T08:20:50;96868.34;;;-5.56;42.76
66385;BME280;53426;55.872;37.462;2023-02-21T08:23:20;96909.81;;;-4.91;42.54
66385;BME280;53426;55.872;37.462;2023-02-21T08:25:47;96903.22;;;-4.05;41.62
66385;BME280;53426;55.872;37.462;2023-02-21T08:28:14;96917.13;;;-3.70;40.36
66385;BME280;53426;55.872;37.462;2023-02-21T08:30:40;96860.22;;;-4.44;40.60
66385;BME280;53426;55.872;37.462;2023-02-21T08:33:06;96920.69;;;-3.71;41.50
66385;BME280;53426;55.872;37.462;2023-02-21T08:35:33;96870.56;;;-3.94;40.38
66385;BME280;53426;55.872;37.462;2023-02-21T08:37:59;96931.31;;;-3.75;40.91
66385;BME280;53426;55.872;37.462;2023-02-21T08:40:29;96935.97;;;-4.31;41.90
66385;BME280;53426;55.872;37.462;2023-02-21T08:42:56;96913.53;;;-4.18;42.33
66385;BME280;53426;55.872;37.462;2023-02-21T08:45:23;96938.84;;;-3.47;41.56
66385;BME280;53426;55.872;37.462;2023-02-21T08:48:43;96895.78;;;-3.48;39.57
66385;BME280;53426;55.872;37.462;2023-02-21T08:51:09;96942.69;;;-3.78;40.02
66385;BME280;53426;55.872;37.462;2023-02-21T08:53:35;96892.31;;;-4.61;41.78
66385;BME280;53426;55.872;37.462;2023-02-21T08:59:43;96927.84;;;-4.65;42.63
66385;BME280;53426;55.872;37.462;2023-02-21T09:02:24;96946.44;;;-4.59;42.50
66385;BME280;53426;55.872;37.462;2023-02-21T09:04:50;96944.56;;;-4.97;42.99
66385;BME280;53426;55.872;37.462;2023-02-21T09:10:00;96938.50;;;-5.10;42.93
66385;BME280;53426;55.872;37.462;2023-02-21T09:12:25;96806.16;;;-6.05;43.95
66385;BME280;53426;55.872;37.462;2023-02-21T09:14:51;96926.78;;;-5.98;44.66
66385;BME280;53426;55.872;37.462;2023-02-21T09:17:17;96933.28;;;-5.64;44.40
66385;BME280;53426;55.872;37.462;2023-02-21T09:22:32;96951.25;;;-4.94;44.21
66385;BME280;53426;55.872;37.462;2023-02-21T09:27:53;96955.19;;;-5.16;44.16
66385;BME280;53426;55.872;37.462;2023-02-21T09:33:16;96925.66;;;-5.38;44.52
66385;BME280;53426;55.872;37.462;2023-02-21T09:35:42;96934.53;;;-5.42;44.60
66385;BME280;53426;55.872;37.462;2023-02-21T09:38:08;96949.69;;;-5.24;44.88
66385;BME280;53426;55.872;37.462;2023-02-21T09:40:47;96915.69;;;-5.16;44.34
66385;BME280;53426;55.872;37.462;2023-02-21T09:47:05;96940.13;;;-4.95;44.17
66385;BME280;53426;55.872;37.462;2023-02-21T09:49:36;96950.97;;;-5.17;43.87
66385;BME280;53426;55.872;37.462;2023-02-21T09:52:05;96955.25;;;-5.30;44.84
66385;BME280;53426;55.872;37.462;2023-02-21T09:54:39;96919.56;;;-5.23;44.51
66385;BME280;53426;55.872;37.462;2023-02-21T09:57:17;96950.81;;;-5.01;43.44
66385;BME280;53426;55.872;37.462;2023-02-21T09:59:43;96922.78;;;-4.93;42.90
66385;BME280;53426;55.872;37.462;2023-02-21T10:08:10;96952.31;;;-4.05;43.14
66385;BME280;53426;55.872;37.462;2023-02-21T10:10:48;96945.91;;;-4.00;42.58
66385;BME280;53426;55.872;37.462;2023-02-21T10:18:51;96962.44;;;-3.90;42.49
66385;BME280;53426;55.872;37.462;2023-02-21T10:21:40;96963.88;;;-3.86;42.29
66385;BME280;53426;55.872;37.462;2023-02-21T10:24:16;96938.97;;;-4.12;41.46
66385;BME280;53426;55.872;37.462;2023-02-21T10:26:49;96961.09;;;-4.60;42.77
66385;BME280;53426;55.872;37.462;2023-02-21T10:29:51;96969.84;;;-4.63;43.48
66385;BME280;53426;55.872;37.462;2023-02-21T10:32:24;96948.09;;;-4.58;43.22
66385;BME280;53426;55.872;37.462;2023-02-21T10:34:51;96936.72;;;-3.17;41.06
66385;BME280;53426;55.872;37.462;2023-02-21T10:40:49;96882.28;;;-1.66;38.20
66385;BME280;53426;55.872;37.462;2023-02-21T10:43:26;96966.88;;;-0.76;36.73
66385;BME280;53426;55.872;37.462;2023-02-21T10:46:13;96971.38;;;0.27;35.71
66385;BME280;53426;55.872;37.462;2023-02-21T10:48:43;96965.50;;;1.26;34.22
66385;BME280;53426;55.872;37.462;2023-02-21T10:51:14;96964.72;;;1.54;33.21
66385;BME280;53426;55.872;37.462;2023-02-21T10:53:42;96932.19;;;1.30;32.66
66385;BME280;53426;55.872;37.462;2023-02-21T10:58:51;96976.63;;;0.58;34.85
66385;BME280;53426;55.872;37.462;2023-02-21T11:06:48;96995.75;;;-0.15;36.41
66385;BME280;53426;55.872;37.462;2023-02-21T11:09:36;96980.22;;;-0.37;35.92
66385;BME280;53426;55.872;37.462;2023-02-21T11:12:26;96995.25;;;-0.95;37.45
66385;BME280;53426;55.872;37.462;2023-02-21T11:17:27;96996.81;;;-1.94;37.41
66385;BME280;53426;55.872;37.462;2023-02-21T11:25:14;97011.09;;;-2.71;38.94
66385;BME280;53426;55.872;37.462;2023-02-21T11:27:43;96984.00;;;-1.74;37.45
66385;BME280;53426;55.872;37.462;2023-02-21T11:30:17;96999.63;;;-0.42;36.55
66385;BME280;53426;55.872;37.462;2023-02-21T11:33:03;96995.25;;;-0.09;35.50
66385;BME280;53426;55.872;37.462;2023-02-21T11:35:43;97016.81;;;-0.18;35.17
66385;BME280;53426;55.872;37.462;2023-02-21T11:38:34;97024.06;;;-0.33;35.29
66385;BME280;53426;55.872;37.462;2023-02-21T11:41:02;97015.31;;;-1.19;35.00
66385;BME280;53426;55.872;37.462;2023-02-21T11:46:44;97027.22;;;-0.72;37.38
66385;BME280;53426;55.872;37.462;2023-02-21T11:49:20;97033.72;;;-1.34;36.74
66385;BME280;53426;55.872;37.462;2023-02-21T11:51:59;97020.81;;;-2.15;37.27
66385;BME280;53426;55.872;37.462;2023-02-21T11:54:28;97021.88;;;-3.14;38.77
66385;BME280;53426;55.872;37.462;2023-02-21T12:05:44;97055.91;;;-5.45;42.49
66385;BME280;53426;55.872;37.462;2023-02-21T12:08:37;97053.97;;;-5.42;42.93
66385;BME280;53426;55.872;37.462;2023-02-21T12:14:23;97056.69;;;-5.87;43.89
66385;BME280;53426;55.872;37.462;2023-02-21T12:22:57;97051.00;;;-6.99;44.76
66385;BME280;53426;55.872;37.462;2023-02-21T12:25:51;97085.75;;;-6.92;44.92
66385;BME280;53426;55.872;37.462;2023-02-21T12:28:46;97096.63;;;-6.87;45.64
66385;BME280;53426;55.872;37.462;2023-02-21T12:31:27;97089.50;;;-6.82;45.72
66385;BME280;53426;55.872;37.462;2023-02-21T12:39:40;97106.41;;;-7.42;46.65
66385;BME280;53426;55.872;37.462;2023-02-21T12:53:13;97122.22;;;-8.02;47.78
66385;BME280;53426;55.872;37.462;2023-02-21T12:55:46;97073.50;;;-8.55;48.12
66385;BME280;53426;55.872;37.462;2023-02-21T13:00:56;97117.38;;;-8.25;48.60
66385;BME280;53426;55.872;37.462;2023-02-21T13:06:43;97135.91;;;-8.18;48.98
66385;BME280;53426;55.872;37.462;2023-02-21T13:09:18;97137.47;;;-8.33;49.29
66385;BME280;53426;55.872;37.462;2023-02-21T13:12:09;97136.78;;;-8.36;49.32
66385;BME280;53426;55.872;37.462;2023-02-21T13:14:50;97155.50;;;-8.34;49.64
66385;BME280;53426;55.872;37.462;2023-02-21T13:17:20;97149.41;;;-8.32;49.65
66385;BME280;53426;55.872;37.462;2023-02-21T13:19:51;97154.97;;;-8.41;49.78
66385;BME280;53426;55.872;37.462;2023-02-21T13:30:35;97187.38;;;-8.57;51.12
66385;BME280;53426;55.872;37.462;2023-02-21T13:33:03;97184.81;;;-8.57;51.13
66385;BME280;53426;55.872;37.462;2023-02-21T13:35:34;97190.56;;;-8.52;50.89
66385;BME280;53426;55.872;37.462;2023-02-21T13:38:01;97187.09;;;-8.70;51.24
66385;BME280;53426;55.872;37.462;2023-02-21T13:40:34;97194.06;;;-8.92;51.44
66385;BME280;53426;55.872;37.462;2023-02-21T13:43:05;97203.22;;;-8.86;52.31
66385;BME280;53426;55.872;37.462;2023-02-21T13:45:33;97154.81;;;-9.13;52.67
66385;BME280;53426;55.872;37.462;2023-02-21T13:53:19;97210.59;;;-8.79;52.44
66385;BME280;53426;55.872;37.462;2023-02-21T13:56:12;97169.53;;;-9.16;52.71
66385;BME280;53426;55.872;37.462;2023-02-21T13:58:43;97168.31;;;-9.28;52.42
66385;BME280;53426;55.872;37.462;2023-02-21T14:01:20;97237.00;;;-8.97;52.50
66385;BME280;53426;55.872;37.462;2023-02-21T14:03:56;97236.59;;;-9.07;52.95
66385;BME280;53426;55.872;37.462;2023-02-21T14:06:24;97242.06;;;-9.16;53.33
66385;BME280;53426;55.872;37.462;2023-02-21T14:08:55;97235.47;;;-9.21;53.47
66385;BME280;53426;55.872;37.462;2023-02-21T14:11:42;97242.63;;;-9.28;53.78
66385;BME280;53426;55.872;37.462;2023-02-21T14:14:27;97204.16;;;-9.68;53.81
66385;BME280;53426;55.872;37.462;2023-02-21T14:17:00;97252.63;;;-9.64;54.02
66385;BME280;53426;55.872;37.462;2023-02-21T14:19:30;97261.09;;;-9.62;54.18
66385;BME280;53426;55.872;37.462;2023-02-21T14:22:13;97245.91;;;-9.66;54.70
66385;BME280;53426;55.872;37.462;2023-02-21T14:24:48;97257.09;;;-9.69;54.70
66385;BME280;53426;55.872;37.462;2023-02-21T14:29:42;97269.56;;;-9.82;55.17
66385;BME280;53426;55.872;37.462;2023-02-21T14:32:22;97286.34;;;-9.75;54.78
66385;BME280;53426;55.872;37.462;2023-02-21T14:40:29;97313.19;;;-9.85;55.24
66385;BME280;53426;55.872;37.462;2023-02-21T14:48:53;97312.81;;;-9.97;55.93
66385;BME280;53426;55.872;37.462;2023-02-21T14:55:10;97335.09;;;-9.99;55.83
66385;BME280;53426;55.872;37.462;2023-02-21T15:00:58;97314.28;;;-10.35;56.89
66385;BME280;53426;55.872;37.462;2023-02-21T15:03:26;97344.47;;;-10.20;56.69
66385;BME280;53426;55.872;37.462;2023-02-21T15:06:11;97334.66;;;-10.32;56.50
66385;BME280;53426;55.872;37.462;2023-02-21T15:08:48;97353.28;;;-10.29;57.09
66385;BME280;53426;55.872;37.462;2023-02-21T15:11:19;97299.19;;;-10.65;57.46
66385;BME280;53426;55.872;37.462;2023-02-21T15:13:46;97355.84;;;-10.29;57.60
66385;BME280;53426;55.872;37.462;2023-02-21T15:16:13;97304.69;;;-10.75;57.40
66385;BME280;53426;55.872;37.462;2023-02-21T15:18:56;97355.91;;;-10.53;57.70
66385;BME280;53426;55.872;37.462;2023-02-21T15:21:24;97347.44;;;-10.55;57.80
66385;BME280;53426;55.872;37.462;2023-02-21T15:24:13;97355.22;;;-10.58;57.79
66385;BME280;53426;55.872;37.462;2023-02-21T15:26:39;97382.84;;;-10.45;58.08
66385;BME280;53426;55.872;37.462;2023-02-21T15:36:45;97387.56;;;-10.57;58.62
66385;BME280;53426;55.872;37.462;2023-02-21T15:39:28;97396.72;;;-10.52;58.26
66385;BME280;53426;55.872;37.462;2023-02-21T15:41:55;97397.94;;;-10.62;58.43
66385;BME280;53426;55.872;37.462;2023-02-21T15:44:55;97410.72;;;-10.62;58.46
66385;BME280;53426;55.872;37.462;2023-02-21T15:47:21;97400.16;;;-10.76;58.53
66385;BME280;53426;55.872;37.462;2023-02-21T15:50:04;97421.16;;;-10.68;58.50
66385;BME280;53426;55.872;37.462;2023-02-21T16:00:37;97450.38;;;-10.75;59.26
66385;BME280;53426;55.872;37.462;2023-02-21T16:03:30;97454.66;;;-10.76;58.91
66385;BME280;53426;55.872;37.462;2023-02-21T16:09:02;97440.22;;;-11.03;58.69
66385;BME280;53426;55.872;37.462;2023-02-21T16:14:22;97472.28;;;-10.94;58.97
66385;BME280;53426;55.872;37.462;2023-02-21T16:17:07;97481.69;;;-10.95;59.38
66385;BME280;53426;55.872;37.462;2023-02-21T16:19:35;97478.34;;;-10.97;59.24
66385;BME280;53426;55.872;37.462;2023-02-21T16:22:20;97472.56;;;-11.02;59.28
66385;BME280;53426;55.872;37.462;2023-02-21T16:24:49;97408.44;;;-11.49;59.51
66385;BME280;53426;55.872;37.462;2023-02-21T16:27:29;97458.16;;;-11.32;59.86
66385;BME280;53426;55.872;37.462;2023-02-21T16:29:55;97483.34;;;-11.20;60.20
66385;BME280;53426;55.872;37.462;2023-02-21T16:32:21;97508.69;;;-11.14;59.90
66385;BME280;53426;55.872;37.462;2023-02-21T16:34:50;97428.31;;;-11.58;59.75
66385;BME280;53426;55.872;37.462;2023-02-21T16:37:20;97517.06;;;-11.09;59.97
66385;BME280;53426;55.872;37.462;2023-02-21T16:39:47;97499.53;;;-11.21;60.13
66385;BME280;53426;55.872;37.462;2023-02-21T16:42:16;97478.75;;;-11.37;60.25
66385;BME280;53426;55.872;37.462;2023-02-21T16:44:43;97501.81;;;-11.12;60.16
66385;BME280;53426;55.872;37.462;2023-02-21T16:47:16;97520.50;;;-11.10;59.96